createdAt,value
2023-03-16T00:02:03.162Z,-0.40
2023-03-16T00:04:33.613Z,-0.60
2023-03-16T00:07:04.025Z,-0.90
2023-03-16T00:09:36.457Z,-0.90
2023-03-16T00:12:07.719Z,-0.90
2023-03-16T00:14:37.961Z,-0.90
2023-03-16T00:17:08.820Z,-1.00
2023-03-16T00:19:39.277Z,-1.00
2023-03-16T00:22:09.513Z,-1.00
2023-03-16T00:24:44.148Z,-1.00
2023-03-16T00:27:15.658Z,-1.00
2023-03-16T00:29:48.154Z,-1.10
2023-03-16T00:32:19.796Z,-1.10
2023-03-16T00:34:50.638Z,-1.00
2023-03-16T00:37:24.398Z,-1.00
2023-03-16T00:39:57.784Z,-0.80
2023-03-16T00:42:30.249Z,-0.80
2023-03-16T00:45:06.673Z,-0.90
2023-03-16T00:47:38.114Z,-1.00
2023-03-16T00:50:09.417Z,-1.00
2023-03-16T00:52:40.064Z,-1.10
2023-03-16T00:55:14.853Z,-1.00
2023-03-16T00:57:47.807Z,-1.20
2023-03-16T01:00:21.679Z,-1.20
2023-03-16T01:02:52.381Z,-1.30
2023-03-16T01:05:22.785Z,-1.40
2023-03-16T01:07:53.952Z,-1.40
2023-03-16T01:10:27.725Z,-1.20
2023-03-16T01:12:58.309Z,-0.90
2023-03-16T01:15:31.281Z,-0.70
2023-03-16T01:18:01.513Z,-0.60
2023-03-16T01:20:31.822Z,-0.50
2023-03-16T01:23:02.997Z,-0.50
2023-03-16T01:25:36.252Z,-0.40
2023-03-16T01:28:07.035Z,-0.40
2023-03-16T01:30:39.425Z,-0.60
2023-03-16T01:33:09.700Z,-0.50
2023-03-16T01:35:40.257Z,-0.60
2023-03-16T01:38:10.489Z,-0.80
2023-03-16T01:40:42.703Z,-0.70
2023-03-16T01:43:14.602Z,-0.70
2023-03-16T01:46:22.268Z,-0.70
2023-03-16T01:48:58.642Z,-0.80
2023-03-16T01:51:33.553Z,-0.90
2023-03-16T01:54:08.749Z,-1.00
2023-03-16T01:56:46.998Z,-1.10
2023-03-16T01:59:19.805Z,-1.20
2023-03-16T02:01:52.927Z,-1.40
2023-03-16T02:04:44.491Z,-1.50
2023-03-16T02:07:18.210Z,-1.60
2023-03-16T02:09:52.538Z,-1.80
2023-03-16T02:12:25.094Z,-1.90
2023-03-16T02:14:55.333Z,-1.90
2023-03-16T02:17:29.190Z,-2.10
2023-03-16T02:20:11.618Z,-2.20
2023-03-16T02:22:45.146Z,-2.30
2023-03-16T02:25:17.757Z,-2.20
2023-03-16T02:27:59.719Z,-2.40
2023-03-16T02:30:32.665Z,-2.50
2023-03-16T02:33:03.158Z,-2.60
2023-03-16T02:35:33.391Z,-2.60
2023-03-16T02:38:03.990Z,-2.50
2023-03-16T02:40:35.813Z,-2.40
2023-03-16T02:43:09.112Z,-2.10
2023-03-16T02:45:45.018Z,-2.00
2023-03-16T02:48:20.568Z,-1.80
2023-03-16T02:50:53.523Z,-1.60
2023-03-16T02:53:25.027Z,-1.30
2023-03-16T02:55:55.088Z,-1.10
2023-03-16T02:58:25.186Z,-0.90
2023-03-16T03:00:57.538Z,-0.80
2023-03-16T03:03:27.962Z,-0.80
2023-03-16T03:05:58.093Z,-0.70
2023-03-16T03:08:28.200Z,-0.60
2023-03-16T03:10:58.266Z,-0.50
2023-03-16T03:13:28.450Z,-0.40
2023-03-16T03:16:00.768Z,-0.40
2023-03-16T03:18:30.957Z,-0.20
2023-03-16T03:21:01.120Z,-0.10
2023-03-16T03:23:31.744Z,0.00
2023-03-16T03:26:03.605Z,0.10
2023-03-16T03:28:35.044Z,0.10
2023-03-16T03:31:06.806Z,0.10
2023-03-16T03:33:36.949Z,0.20
2023-03-16T03:36:08.811Z,0.30
2023-03-16T03:38:40.604Z,0.30
2023-03-16T03:41:10.827Z,0.30
2023-03-16T03:43:40.966Z,0.30
2023-03-16T03:46:12.754Z,0.30
2023-03-16T03:48:43.637Z,0.30
2023-03-16T03:51:14.405Z,0.10
2023-03-16T03:53:44.698Z,0.00
2023-03-16T03:56:14.823Z,-0.10
2023-03-16T03:58:45.002Z,-0.20
2023-03-16T04:01:16.784Z,-0.30
2023-03-16T04:03:47.884Z,-0.40
2023-03-16T04:06:17.998Z,-0.40
2023-03-16T04:08:48.393Z,-0.50
2023-03-16T04:11:18.495Z,-0.60
2023-03-16T04:13:48.653Z,-0.60
2023-03-16T04:16:20.317Z,-0.60
2023-03-16T04:18:50.481Z,-0.60
2023-03-16T04:21:20.997Z,-0.70
2023-03-16T04:23:54.954Z,-0.70
2023-03-16T04:26:26.225Z,-0.80
2023-03-16T04:28:56.621Z,-0.80
2023-03-16T04:31:28.391Z,-0.90
2023-03-16T04:33:58.569Z,-0.90
2023-03-16T04:36:28.792Z,-1.00
2023-03-16T04:38:59.047Z,-1.00
2023-03-16T04:41:29.403Z,-1.10
2023-03-16T04:43:59.865Z,-1.10
2023-03-16T04:46:31.990Z,-1.10
2023-03-16T04:49:02.564Z,-1.10
2023-03-16T04:51:32.892Z,-1.10
2023-03-16T04:54:03.015Z,-1.00
2023-03-16T04:56:33.271Z,-1.00
2023-03-16T04:59:03.377Z,-1.00
2023-03-16T05:01:35.130Z,-1.10
2023-03-16T05:04:05.324Z,-1.00
2023-03-16T05:06:35.436Z,-1.00
2023-03-16T05:09:06.742Z,-1.00
2023-03-16T05:11:36.821Z,-0.90
2023-03-16T05:14:06.922Z,-0.90
2023-03-16T05:16:38.656Z,-0.90
2023-03-16T05:19:08.990Z,-0.80
2023-03-16T05:21:40.414Z,-0.80
2023-03-16T05:24:12.938Z,-0.70
2023-03-16T05:26:43.125Z,-0.70
2023-03-16T05:29:13.804Z,-0.60
2023-03-16T05:31:47.562Z,-0.60
2023-03-16T05:34:18.186Z,-0.50
2023-03-16T05:36:48.438Z,-0.50
2023-03-16T05:39:18.614Z,-0.50
2023-03-16T05:41:48.697Z,-0.50
2023-03-16T05:44:18.881Z,-0.50
2023-03-16T05:46:50.998Z,-0.40
2023-03-16T05:49:21.303Z,-0.40
2023-03-16T05:51:51.736Z,-0.30
2023-03-16T05:54:21.960Z,-0.30
2023-03-16T05:56:52.007Z,-0.30
2023-03-16T05:59:22.161Z,-0.30
2023-03-16T06:01:54.198Z,-0.30
2023-03-16T06:04:24.680Z,-0.30
2023-03-16T06:06:55.011Z,-0.40
2023-03-16T06:09:25.163Z,-0.50
2023-03-16T06:11:55.443Z,-0.60
2023-03-16T06:14:25.612Z,-0.70
2023-03-16T06:16:57.287Z,-0.80
2023-03-16T06:19:27.447Z,-0.80
2023-03-16T06:21:57.745Z,-0.70
2023-03-16T06:24:28.018Z,-0.60
2023-03-16T06:26:58.073Z,-0.60
2023-03-16T06:29:28.205Z,-0.60
2023-03-16T06:32:00.244Z,-0.60
2023-03-16T06:34:30.423Z,-0.60
2023-03-16T06:37:00.515Z,-0.50
2023-03-16T06:39:30.656Z,-0.50
2023-03-16T06:42:01.432Z,-0.40
2023-03-16T06:44:32.092Z,-0.40
2023-03-16T06:47:03.830Z,-0.40
2023-03-16T06:49:34.536Z,-0.30
2023-03-16T06:52:04.740Z,-0.30
2023-03-16T06:54:35.969Z,-0.20
2023-03-16T06:57:06.656Z,-0.20
2023-03-16T06:59:36.824Z,-0.10
2023-03-16T07:02:09.138Z,-0.10
2023-03-16T07:04:39.621Z,0.00
2023-03-16T07:07:09.814Z,0.00
2023-03-16T07:09:41.738Z,0.00
2023-03-16T07:12:12.557Z,0.10
2023-03-16T07:14:42.898Z,0.20
2023-03-16T07:17:14.774Z,0.30
2023-03-16T07:19:45.040Z,0.30
2023-03-16T07:22:15.337Z,0.30
2023-03-16T07:24:45.908Z,0.50
2023-03-16T07:27:15.959Z,0.60
2023-03-16T07:29:46.096Z,0.70
2023-03-16T07:32:17.875Z,0.70
2023-03-16T07:34:48.161Z,0.80
2023-03-16T07:37:24.558Z,0.90
2023-03-16T07:39:55.587Z,0.90
2023-03-16T07:42:25.786Z,1.00
2023-03-16T07:44:56.053Z,1.00
2023-03-16T07:47:27.715Z,1.00
2023-03-16T07:49:57.920Z,1.00
2023-03-16T07:52:28.058Z,1.10
2023-03-16T07:54:58.439Z,1.00
2023-03-16T07:57:28.663Z,1.00
2023-03-16T07:59:59.862Z,1.00
2023-03-16T08:02:31.852Z,1.00
2023-03-16T08:05:02.282Z,0.90
2023-03-16T08:07:32.501Z,0.90
2023-03-16T08:10:02.644Z,0.90
2023-03-16T08:12:34.335Z,0.90
2023-03-16T08:15:05.355Z,0.90
2023-03-16T08:17:37.327Z,0.80
2023-03-16T08:20:11.338Z,0.90
2023-03-16T08:22:41.772Z,1.00
2023-03-16T08:25:12.709Z,1.20
2023-03-16T08:27:43.424Z,1.20
2023-03-16T08:30:15.160Z,1.10
2023-03-16T08:32:46.975Z,0.90
2023-03-16T08:35:18.688Z,0.80
2023-03-16T08:37:50.138Z,0.70
2023-03-16T08:40:23.397Z,0.60
2023-03-16T08:42:54.988Z,0.60
2023-03-16T08:45:25.112Z,0.60
2023-03-16T08:47:57.551Z,0.50
2023-03-16T08:50:28.549Z,0.50
2023-03-16T08:52:58.823Z,0.40
2023-03-16T08:55:29.602Z,0.50
2023-03-16T08:58:00.772Z,0.50
2023-03-16T09:00:31.613Z,0.40
2023-03-16T09:03:03.484Z,0.40
2023-03-16T09:05:33.759Z,0.40
2023-03-16T09:08:05.399Z,0.30
2023-03-16T09:10:36.798Z,0.40
2023-03-16T09:13:06.922Z,0.40
2023-03-16T09:15:37.040Z,0.40
2023-03-16T09:18:09.074Z,0.40
2023-03-16T09:20:39.592Z,0.40
2023-03-16T09:23:09.839Z,0.40
2023-03-16T09:25:40.484Z,0.40
2023-03-16T09:28:11.708Z,0.30
2023-03-16T09:30:41.861Z,0.40
2023-03-16T09:33:13.984Z,0.40
2023-03-16T09:35:44.124Z,0.30
2023-03-16T09:38:14.623Z,0.30
2023-03-16T09:40:47.068Z,0.30
2023-03-16T09:43:52.532Z,0.30
2023-03-16T09:46:30.000Z,0.30
2023-03-16T09:49:03.024Z,0.20
2023-03-16T09:51:41.122Z,0.20
2023-03-16T09:54:22.109Z,0.20
2023-03-16T09:56:56.406Z,0.20
2023-03-16T09:59:29.327Z,0.20
2023-03-16T10:02:18.643Z,0.20
2023-03-16T10:04:59.904Z,0.30
2023-03-16T10:07:40.384Z,0.30
2023-03-16T10:10:24.725Z,0.30
2023-03-16T10:13:00.293Z,0.30
2023-03-16T10:15:35.471Z,0.20
2023-03-16T10:18:11.811Z,0.20
2023-03-16T10:20:46.116Z,0.20
2023-03-16T10:23:21.419Z,0.20
2023-03-16T10:25:53.423Z,0.20
2023-03-16T10:28:26.832Z,0.20
2023-03-16T10:30:59.202Z,0.10
2023-03-16T10:33:30.952Z,0.20
2023-03-16T10:36:06.663Z,0.20
2023-03-16T10:38:43.695Z,0.20
2023-03-16T10:41:26.514Z,0.10
2023-03-16T10:43:57.890Z,0.10
2023-03-16T10:46:30.089Z,0.10
2023-03-16T10:49:02.150Z,0.00
2023-03-16T10:51:37.000Z,0.00
2023-03-16T10:54:14.937Z,0.00
2023-03-16T10:56:46.682Z,0.00
2023-03-16T10:59:25.523Z,0.00
2023-03-16T11:01:55.647Z,0.00
2023-03-16T11:04:26.360Z,0.00
2023-03-16T11:07:00.125Z,0.00
2023-03-16T11:09:35.232Z,0.00
2023-03-16T11:12:17.865Z,0.10
2023-03-16T11:14:49.715Z,0.10
2023-03-16T11:17:24.443Z,0.10
2023-03-16T11:19:57.000Z,0.10
2023-03-16T11:22:30.828Z,0.00
2023-03-16T11:25:11.790Z,0.00
2023-03-16T11:27:46.741Z,0.00
2023-03-16T11:30:23.277Z,0.00
2023-03-16T11:32:55.277Z,0.10
2023-03-16T11:35:32.648Z,0.10
2023-03-16T11:38:14.130Z,0.10
2023-03-16T11:40:55.656Z,0.10
2023-03-16T11:43:50.102Z,0.10
2023-03-16T11:46:24.676Z,0.20
2023-03-16T11:49:28.069Z,0.20
2023-03-16T11:52:06.698Z,0.20
2023-03-16T11:54:50.244Z,0.30
2023-03-16T11:57:40.266Z,0.30
2023-03-16T12:00:33.787Z,0.40
2023-03-16T12:03:41.711Z,0.50
2023-03-16T12:06:24.152Z,0.50
2023-03-16T12:09:18.725Z,0.50
2023-03-16T12:11:56.950Z,0.50
2023-03-16T12:14:31.858Z,0.60
2023-03-16T12:17:06.469Z,0.70
2023-03-16T12:19:44.980Z,0.70
2023-03-16T12:22:20.909Z,0.80
2023-03-16T12:24:51.233Z,0.90
2023-03-16T12:27:27.762Z,0.90
2023-03-16T12:30:10.236Z,0.90
2023-03-16T12:32:46.095Z,0.90
2023-03-16T12:35:36.605Z,1.00
2023-03-16T12:38:39.632Z,1.00
2023-03-16T12:41:25.623Z,1.00
2023-03-16T12:44:12.201Z,1.10
2023-03-16T12:46:53.209Z,1.30
2023-03-16T12:49:25.426Z,1.50
2023-03-16T12:52:02.652Z,1.70
2023-03-16T12:54:33.346Z,1.70
2023-03-16T12:57:05.325Z,1.70
2023-03-16T12:59:48.669Z,1.70
2023-03-16T13:02:21.866Z,1.80
2023-03-16T13:04:59.821Z,1.90
2023-03-16T13:07:33.189Z,2.00
2023-03-16T13:10:11.219Z,2.00
2023-03-16T13:12:42.395Z,2.00
2023-03-16T13:15:30.269Z,2.20
2023-03-16T13:18:22.465Z,2.40
2023-03-16T13:20:58.788Z,2.40
2023-03-16T13:23:30.872Z,2.40
2023-03-16T13:26:09.716Z,2.30
2023-03-16T13:28:41.045Z,2.30
2023-03-16T13:31:27.760Z,2.30
2023-03-16T13:34:00.705Z,2.30
2023-03-16T13:36:32.506Z,2.50
2023-03-16T13:39:19.851Z,2.50
2023-03-16T13:42:01.817Z,2.80
2023-03-16T13:44:32.709Z,3.00
2023-03-16T13:47:10.331Z,3.00
2023-03-16T13:49:48.084Z,3.10
2023-03-16T13:52:26.325Z,3.30
2023-03-16T13:54:58.161Z,3.30
2023-03-16T13:57:31.457Z,3.40
2023-03-16T14:00:08.174Z,3.60
2023-03-16T14:02:45.295Z,3.60
2023-03-16T14:05:21.060Z,3.70
2023-03-16T14:07:52.243Z,3.90
2023-03-16T14:10:23.452Z,4.00
2023-03-16T14:12:54.634Z,3.80
2023-03-16T14:15:29.867Z,3.50
2023-03-16T14:18:17.076Z,3.30
2023-03-16T14:20:47.356Z,3.10
2023-03-16T14:23:21.603Z,3.00
2023-03-16T14:25:52.522Z,3.00
2023-03-16T14:28:31.713Z,3.10
2023-03-16T14:31:07.486Z,3.10
2023-03-16T14:33:42.587Z,3.20
2023-03-16T14:36:18.255Z,3.40
2023-03-16T14:38:49.801Z,3.50
2023-03-16T14:41:25.186Z,3.70
2023-03-16T14:43:58.310Z,3.80
2023-03-16T14:46:30.998Z,3.70
2023-03-16T14:49:11.320Z,3.60
2023-03-16T14:51:43.354Z,3.70
2023-03-16T14:54:16.899Z,3.90
2023-03-16T14:56:50.491Z,4.30
2023-03-16T14:59:21.345Z,4.50
2023-03-16T15:01:53.179Z,4.60
2023-03-16T15:04:30.374Z,4.70
2023-03-16T15:07:00.774Z,4.80
2023-03-16T15:09:40.872Z,4.80
2023-03-16T15:12:17.420Z,4.60
2023-03-16T15:15:04.567Z,4.60
2023-03-16T15:17:34.755Z,4.40
2023-03-16T15:20:08.163Z,4.40
2023-03-16T15:22:40.636Z,4.30
2023-03-16T15:25:27.241Z,4.20
2023-03-16T15:27:58.253Z,4.10
2023-03-16T15:30:31.416Z,3.80
2023-03-16T15:33:01.861Z,3.80
2023-03-16T15:35:33.609Z,3.80
2023-03-16T15:38:08.371Z,3.80
2023-03-16T15:40:38.864Z,3.90
2023-03-16T15:43:12.817Z,3.80
2023-03-16T15:45:44.108Z,3.80
2023-03-16T15:48:14.401Z,3.60
2023-03-16T15:50:49.485Z,3.60
2023-03-16T15:53:30.969Z,3.40
2023-03-16T15:56:04.410Z,3.20
2023-03-16T15:58:36.939Z,3.10
2023-03-16T16:01:09.474Z,2.80
2023-03-16T16:03:39.824Z,2.50
2023-03-16T16:06:15.105Z,2.50
2023-03-16T16:08:45.444Z,2.40
2023-03-16T16:11:18.870Z,2.40
2023-03-16T16:13:49.790Z,2.30
2023-03-16T16:16:21.310Z,2.20
2023-03-16T16:18:51.694Z,2.40
2023-03-16T16:21:25.824Z,2.50
2023-03-16T16:23:56.262Z,2.50
2023-03-16T16:26:46.931Z,2.60
2023-03-16T16:29:38.190Z,2.70
2023-03-16T16:32:24.754Z,3.20
2023-03-16T16:35:03.875Z,3.30
2023-03-16T16:37:36.088Z,3.30
2023-03-16T16:40:13.730Z,3.40
2023-03-16T16:42:43.806Z,3.50
2023-03-16T16:45:28.326Z,3.80
2023-03-16T16:47:59.869Z,4.30
2023-03-16T16:50:31.745Z,4.30
2023-03-16T16:53:03.634Z,4.40
2023-03-16T16:55:34.610Z,4.30
2023-03-16T16:58:09.852Z,4.30
2023-03-16T17:00:45.081Z,4.50
2023-03-16T17:03:24.742Z,4.30
2023-03-16T17:05:55.415Z,4.20
2023-03-16T17:08:28.141Z,4.10
2023-03-16T17:10:59.143Z,4.00
2023-03-16T17:13:34.722Z,4.00
2023-03-16T17:16:04.899Z,4.00
2023-03-16T17:18:35.689Z,4.30
2023-03-16T17:21:06.968Z,4.40
2023-03-16T17:23:38.591Z,4.40
2023-03-16T17:26:16.741Z,4.40
2023-03-16T17:28:49.971Z,4.50
2023-03-16T17:31:25.049Z,4.30
2023-03-16T17:33:57.946Z,4.00
2023-03-16T17:36:28.188Z,3.80
2023-03-16T17:39:02.663Z,3.60
2023-03-16T17:41:33.492Z,3.30
2023-03-16T17:44:06.927Z,3.20
2023-03-16T17:46:37.439Z,3.10
2023-03-16T17:49:14.653Z,3.00
2023-03-16T17:51:45.220Z,2.90
2023-03-16T17:54:17.062Z,2.70
2023-03-16T17:56:48.756Z,2.70
2023-03-16T17:59:20.036Z,2.60
2023-03-16T18:01:50.853Z,2.60
2023-03-16T18:04:22.962Z,2.60
2023-03-16T18:06:53.517Z,2.70
2023-03-16T18:09:25.195Z,2.60
2023-03-16T18:11:55.293Z,2.70
2023-03-16T18:14:35.597Z,2.70
2023-03-16T18:17:19.572Z,2.70
2023-03-16T18:19:50.373Z,2.60
2023-03-16T18:22:22.730Z,2.50
2023-03-16T18:24:56.271Z,2.50
2023-03-16T18:27:26.675Z,2.60
2023-03-16T18:29:56.995Z,2.60
2023-03-16T18:32:29.395Z,2.70
2023-03-16T18:35:02.888Z,2.70
2023-03-16T18:37:35.397Z,2.60
2023-03-16T18:40:08.723Z,2.50
2023-03-16T18:42:38.838Z,2.40
2023-03-16T18:45:12.828Z,2.20
2023-03-16T18:47:45.337Z,2.10
2023-03-16T18:50:28.757Z,2.10
2023-03-16T18:53:00.141Z,2.10
2023-03-16T18:55:32.261Z,2.10
2023-03-16T18:58:03.105Z,2.20
2023-03-16T19:00:34.525Z,2.30
2023-03-16T19:03:05.790Z,2.30
2023-03-16T19:05:39.430Z,2.40
2023-03-16T19:08:09.909Z,2.50
2023-03-16T19:10:47.583Z,2.60
2023-03-16T19:13:21.324Z,2.50
2023-03-16T19:15:52.773Z,2.60
2023-03-16T19:18:23.555Z,2.40
2023-03-16T19:20:55.458Z,2.60
2023-03-16T19:23:30.279Z,2.70
2023-03-16T19:26:02.210Z,2.70
2023-03-16T19:28:35.199Z,2.70
2023-03-16T19:31:09.362Z,2.70
2023-03-16T19:33:39.585Z,2.70
2023-03-16T19:36:16.231Z,2.70
2023-03-16T19:38:47.185Z,2.80
2023-03-16T19:41:27.443Z,2.90
2023-03-16T19:43:59.445Z,3.00
2023-03-16T19:46:30.874Z,2.90
2023-03-16T19:49:01.348Z,3.00
2023-03-16T19:51:32.912Z,2.90
2023-03-16T19:54:03.115Z,2.90
2023-03-16T19:56:35.151Z,2.80
2023-03-16T19:59:05.314Z,2.80
2023-03-16T20:01:35.630Z,2.80
2023-03-16T20:04:06.025Z,2.90
2023-03-16T20:06:36.095Z,2.90
2023-03-16T20:09:06.485Z,2.90
2023-03-16T20:11:38.664Z,2.90
2023-03-16T20:14:17.551Z,2.90
2023-03-16T20:16:48.866Z,2.90
2023-03-16T20:19:21.950Z,3.10
2023-03-16T20:21:52.731Z,3.20
2023-03-16T20:24:23.965Z,3.20
2023-03-16T20:26:57.558Z,3.20
2023-03-16T20:29:33.031Z,3.30
2023-03-16T20:32:05.007Z,3.30
2023-03-16T20:34:35.483Z,3.30
2023-03-16T20:37:05.648Z,3.20
2023-03-16T20:39:39.783Z,3.20
2023-03-16T20:42:19.222Z,3.10
2023-03-16T20:44:49.578Z,3.10
2023-03-16T20:47:22.703Z,3.10
2023-03-16T20:49:54.192Z,3.10
2023-03-16T20:52:30.516Z,3.20
2023-03-16T20:55:01.281Z,3.30
2023-03-16T20:57:33.359Z,3.30
2023-03-16T21:00:05.969Z,3.30
2023-03-16T21:02:37.128Z,3.30
2023-03-16T21:05:09.698Z,3.20
2023-03-16T21:07:39.814Z,3.20
2023-03-16T21:10:10.615Z,3.20
2023-03-16T21:12:50.178Z,3.20
2023-03-16T21:15:28.284Z,3.20
2023-03-16T21:18:03.048Z,3.30
2023-03-16T21:20:34.462Z,3.30
2023-03-16T21:23:06.454Z,3.30
2023-03-16T21:25:42.869Z,3.30
2023-03-16T21:28:15.862Z,3.30
2023-03-16T21:30:48.302Z,3.30
2023-03-16T21:33:24.040Z,3.40
2023-03-16T21:35:54.228Z,3.40
2023-03-16T21:38:25.003Z,3.50
2023-03-16T21:40:55.727Z,3.50
2023-03-16T21:43:27.906Z,3.40
2023-03-16T21:45:58.890Z,3.40
2023-03-16T21:48:38.217Z,3.40
2023-03-16T21:51:17.954Z,3.40
2023-03-16T21:53:49.299Z,3.30
2023-03-16T21:56:21.479Z,3.20
2023-03-16T21:58:54.051Z,3.20
2023-03-16T22:01:26.239Z,3.10
2023-03-16T22:03:58.153Z,3.00
2023-03-16T22:06:30.480Z,2.90
2023-03-16T22:09:01.772Z,2.90
2023-03-16T22:11:32.901Z,2.70
2023-03-16T22:14:05.292Z,2.60
2023-03-16T22:16:38.640Z,2.50
2023-03-16T22:19:12.632Z,2.40
2023-03-16T22:21:44.152Z,2.30
2023-03-16T22:24:18.713Z,2.20
2023-03-16T22:26:49.728Z,2.20
2023-03-16T22:29:30.464Z,2.10
2023-03-16T22:32:03.675Z,2.10
2023-03-16T22:34:39.430Z,2.20
2023-03-16T22:37:10.440Z,2.20
2023-03-16T22:39:42.503Z,2.10
2023-03-16T22:42:28.899Z,2.10
2023-03-16T22:45:01.580Z,2.10
2023-03-16T22:47:33.443Z,2.00
2023-03-16T22:50:07.996Z,2.00
2023-03-16T22:52:40.465Z,1.90
2023-03-16T22:55:17.172Z,1.90
2023-03-16T22:57:48.389Z,1.90
2023-03-16T23:00:23.481Z,1.90
2023-03-16T23:02:53.810Z,1.80
2023-03-16T23:05:27.813Z,1.70
2023-03-16T23:07:58.457Z,1.70
2023-03-16T23:10:30.553Z,1.70
2023-03-16T23:13:03.044Z,1.70
2023-03-16T23:15:40.974Z,1.60
2023-03-16T23:18:20.509Z,1.60
2023-03-16T23:20:52.381Z,1.50
2023-03-16T23:23:22.775Z,1.50
2023-03-16T23:25:52.928Z,1.50
2023-03-16T23:28:26.381Z,1.50
2023-03-16T23:30:58.476Z,1.50
2023-03-16T23:33:28.798Z,1.40
2023-03-16T23:36:09.138Z,1.50
2023-03-16T23:38:40.381Z,1.40
2023-03-16T23:41:11.970Z,1.50
2023-03-16T23:43:43.488Z,1.50
2023-03-16T23:46:19.209Z,1.50
2023-03-16T23:48:51.876Z,1.50
2023-03-16T23:51:25.532Z,1.40
2023-03-16T23:53:56.085Z,1.40
2023-03-16T23:56:26.967Z,1.40
2023-03-16T23:58:58.596Z,1.40
